My Meet Scores
Lyndsay Kessler, Northwest Gymnastics - MyMeetScores.com
Top100 | Top Teams | Upcoming Meets | Completed Meets | Latest | Add Scores | Help| Support | Bookmark and Share

Lyndsay Kessler, Northwest Gymnastics
Personal Bests
LevelVault BarsBeamFloorAA
39.2509.050 8.9259.45036.150
48.8008.050 9.0008.90033.750
Meet Scores
Date Meet Team Session Level Division Vault Bars Beam Floor AA
2020-01-24 2020 Kinetic Kids Invitational Northwest Gymnastics 6 4 Sr A 8.800 5 7.200 9 8.450 7T 8.900 3 33.350 7
2019-12-06 Rhode Island Invitational Northwest Gymnastics WU3 4 junior 8.300 11 7.600 12 8.025 13 8.525 12 32.450 12
2019-11-09 2019 LFSA Fall Invitational Northwest Gymnastics 1 4 JR 7.950 13 7.400 11T 8.650 12T 8.850 9 32.850 13
2019-10-27 10/27/19 FVG Local Northwest Gymnastics 1 4 N/A 8.350 2 7.950 2 7.950 1 8.150 3 32.400 2
2019-02-22 2019 February Flip Invitational Northwest Gymnastics 6 4 9 under 7.900 10T 8.050 11 9.000 8 8.800 5T 33.750 10
2019-02-01 State Level 4&5 Northwest Gymnastics 4 4 9C 8.550 43T 6.050 53 7.725 55 8.475 43 30.800 53
2019-01-25 Kinetic Kids Invitational 2019 Northwest Gymnastics 2 4 Jr B 8.000 6T 7.650 9 8.450 6T 8.450 6 32.550 8T
2018-11-30 Rhode Island Invitational Northwest Gymnastics SF4 4 Intermedia 8.300 8 6.200 10 8.025 3 8.450 5 30.975 8
2018-11-10 2018 Turkey Tumble Northwest Gymnastics 2 4 Jr B 8.200 6T 5.550 11 7.950 11 7.850 9 29.550 11
2018-02-23 2018 February Flip Invitational Northwest Gymnastics 6 3 8 Yr Old 9.050 8T 8.750 10T 8.900 6 9.450 5T 36.150 7
2018-02-09 Team Challenge 2018 Northwest Gymnastics 06B 3 Sr A 8.850 16 9.050 18 8.925 15T 8.950 15 35.775 15
2018-01-19 Sand Dollar/ Whitlow Invitational Northwest Gymnastics E13 3 Jr B 9.250 10 8.400 18 8.850 13 8.625 14 35.125 15
2017-12-15 Holiday Classic Invitational Northwest Gymnastics 3 3 Gingerbrea 8.900 3T 8.400 3 8.775 3 8.700 2T 34.775 1
2017-11-30 Rhode Island Invitational Northwest Gymnastics WS4 3 intermedia 8.525 3 8.900 3 8.700 3 9.050 1T 35.175 2
2017-03-25 2017 Connecticut Level 3 State Cup Gymnastic Training Center of Simsbury 1 3 N/A 8.850 46T 7.700 54 8.250 55 8.650 26T 33.450 52
2017-02-24 Pink Invitational - Gymnasts Unite Gymnastic Training Center of Simsbury FA2 3 8 yrs. 8.800 13T 8.500 12 8.300 7 8.850 8T 34.450 10
2017-02-10 Team Challenge 2017 Gymnastic Training Center of Simsbury 07R 3 Child 9.100 9T 8.400 10T 8.225 17 8.450 11 34.175 12
2017-01-28 Manhattan Classic 2017 - Central Park Gymnastic Training Center of Simsbury C5 3 Jr A 9.050 8T 7.900 10T 8.425 10 8.750 10 34.125 11
2017-01-13 Brestyan's Invitational Gymnastic Training Center of Simsbury 1 3 Age 2 8.975 11 8.000 12 7.700 13 8.150 12 32.825 12
2016-12-02 Rhode Island Invitational Gymnastic Training Center of Simsbury WS3 3 Child 9.250 1T 7.550 4 8.175 8 8.400 3 33.375 4
2016-11-18 2016 Muriel Grossfeld Invitational Gymnastic Training Center of Simsbury 5 3 Jr A 8.450 12 7.650 7 8.425 4 8.300 10T 32.825 6
Get your scores on
a t-shirt, pin, or hoodie